createdAt,value
2022-09-29T00:00:48.249Z,9.80
2022-09-29T00:03:15.732Z,9.80
2022-09-29T00:05:47.117Z,9.80
2022-09-29T00:08:15.518Z,9.80
2022-09-29T00:10:42.810Z,9.80
2022-09-29T00:13:10.265Z,9.80
2022-09-29T00:15:37.849Z,9.80
2022-09-29T00:18:20.565Z,9.80
2022-09-29T00:20:56.022Z,9.80
2022-09-29T00:23:24.094Z,9.80
2022-09-29T00:26:10.374Z,9.80
2022-09-29T00:28:38.800Z,9.70
2022-09-29T00:31:07.241Z,9.70
2022-09-29T00:33:36.220Z,9.70
2022-09-29T00:36:08.499Z,9.80
2022-09-29T00:38:36.439Z,9.80
2022-09-29T00:41:04.616Z,9.80
2022-09-29T00:43:48.602Z,9.80
2022-09-29T00:46:17.685Z,9.80
2022-09-29T00:48:45.170Z,9.80
2022-09-29T00:51:13.851Z,9.80
2022-09-29T00:53:41.614Z,9.80
2022-09-29T00:56:12.005Z,9.80
2022-09-29T00:58:44.150Z,9.80
2022-09-29T01:01:12.894Z,9.70
2022-09-29T01:03:42.305Z,9.80
2022-09-29T01:06:13.022Z,9.70
2022-09-29T01:09:01.647Z,9.80
2022-09-29T01:11:29.949Z,9.80
2022-09-29T01:14:03.427Z,9.80
2022-09-29T01:16:32.067Z,9.80
2022-09-29T01:19:00.639Z,9.80
2022-09-29T01:21:34.132Z,9.80
2022-09-29T01:24:20.198Z,9.90
2022-09-29T01:26:53.798Z,9.90
2022-09-29T01:29:23.960Z,9.90
2022-09-29T01:32:00.051Z,9.90
2022-09-29T01:34:30.313Z,9.90
2022-09-29T01:37:00.463Z,9.90
2022-09-29T01:39:40.927Z,9.90
2022-09-29T01:42:14.370Z,9.90
2022-09-29T01:44:54.439Z,9.90
2022-09-29T01:47:42.072Z,9.90
2022-09-29T01:50:14.858Z,9.90
2022-09-29T01:52:43.561Z,10.00
2022-09-29T01:55:13.119Z,10.00
2022-09-29T01:57:47.149Z,10.00
2022-09-29T02:00:15.924Z,10.00
2022-09-29T02:02:49.246Z,10.00
2022-09-29T02:05:19.909Z,10.10
2022-09-29T02:07:47.536Z,10.10
2022-09-29T02:10:21.672Z,10.10
2022-09-29T02:12:50.651Z,10.10
2022-09-29T02:15:24.018Z,10.20
2022-09-29T02:17:53.215Z,10.20
2022-09-29T02:20:20.924Z,10.20
2022-09-29T02:22:48.584Z,10.20
2022-09-29T02:25:17.578Z,10.20
2022-09-29T02:27:46.219Z,10.20
2022-09-29T02:30:13.810Z,10.20
2022-09-29T02:32:41.161Z,10.20
2022-09-29T02:35:10.427Z,10.20
2022-09-29T02:37:40.840Z,10.20
2022-09-29T02:40:18.541Z,10.20
2022-09-29T02:42:58.200Z,10.20
2022-09-29T02:45:32.961Z,10.20
2022-09-29T02:48:28.143Z,10.20
2022-09-29T02:51:15.893Z,10.20
2022-09-29T02:53:52.527Z,10.20
2022-09-29T02:56:23.109Z,10.20
2022-09-29T02:59:15.236Z,10.20
2022-09-29T03:01:51.304Z,10.20
2022-09-29T03:04:19.894Z,10.10
2022-09-29T03:06:47.492Z,10.20
2022-09-29T03:09:18.439Z,10.10
2022-09-29T03:11:46.186Z,10.10
2022-09-29T03:14:13.487Z,10.10
2022-09-29T03:16:40.850Z,10.10
2022-09-29T03:19:08.478Z,10.10
2022-09-29T03:21:35.856Z,10.10
2022-09-29T03:24:03.277Z,10.00
2022-09-29T03:26:30.602Z,10.00
2022-09-29T03:28:57.972Z,10.00
2022-09-29T03:31:25.385Z,10.00
2022-09-29T03:33:52.717Z,10.00
2022-09-29T03:36:20.107Z,10.00
2022-09-29T03:38:47.452Z,10.00
2022-09-29T03:41:15.766Z,10.00
2022-09-29T03:43:43.125Z,9.90
2022-09-29T03:46:10.562Z,9.90
2022-09-29T03:48:37.995Z,9.90
2022-09-29T03:51:06.151Z,9.80
2022-09-29T03:53:36.337Z,9.80
2022-09-29T03:56:04.101Z,9.80
2022-09-29T03:58:31.409Z,9.90
2022-09-29T04:00:58.801Z,9.90
2022-09-29T04:03:26.131Z,9.90
2022-09-29T04:05:53.466Z,9.90
2022-09-29T04:08:20.768Z,9.90
2022-09-29T04:10:48.360Z,9.80
2022-09-29T04:13:19.838Z,9.90
2022-09-29T04:15:48.506Z,9.90
2022-09-29T04:18:15.899Z,9.90
2022-09-29T04:20:43.370Z,9.80
2022-09-29T04:23:10.779Z,9.80
2022-09-29T04:25:38.180Z,9.80
2022-09-29T04:28:05.463Z,9.70
2022-09-29T04:30:32.767Z,9.70
2022-09-29T04:33:00.190Z,9.70
2022-09-29T04:35:33.624Z,9.70
2022-09-29T04:38:03.481Z,9.70
2022-09-29T04:40:30.855Z,9.70
2022-09-29T04:42:58.215Z,9.70
2022-09-29T04:45:25.580Z,9.70
2022-09-29T04:47:52.946Z,9.60
2022-09-29T04:50:20.257Z,9.60
2022-09-29T04:52:47.862Z,9.50
2022-09-29T04:55:15.398Z,9.50
2022-09-29T04:57:43.465Z,9.40
2022-09-29T05:00:11.618Z,9.40
2022-09-29T05:02:39.136Z,9.30
2022-09-29T05:05:07.085Z,9.30
2022-09-29T05:07:35.093Z,9.20
2022-09-29T05:10:02.517Z,9.20
2022-09-29T05:12:29.877Z,9.10
2022-09-29T05:14:57.256Z,9.10
2022-09-29T05:17:24.910Z,9.10
2022-09-29T05:19:52.193Z,9.10
2022-09-29T05:22:24.485Z,9.00
2022-09-29T05:24:52.421Z,9.00
2022-09-29T05:27:19.875Z,9.00
2022-09-29T05:29:47.242Z,8.90
2022-09-29T05:32:14.794Z,8.90
2022-09-29T05:34:42.177Z,8.90
2022-09-29T05:37:09.935Z,8.80
2022-09-29T05:39:37.758Z,8.80
2022-09-29T05:42:06.574Z,8.80
2022-09-29T05:44:34.008Z,8.80
2022-09-29T05:47:01.352Z,8.70
2022-09-29T05:49:30.926Z,8.70
2022-09-29T05:51:58.513Z,8.70
2022-09-29T05:54:27.509Z,8.70
2022-09-29T05:56:55.003Z,8.60
2022-09-29T05:59:22.398Z,8.60
2022-09-29T06:01:49.872Z,8.60
2022-09-29T06:04:17.582Z,8.60
2022-09-29T06:06:45.121Z,8.60
2022-09-29T06:09:12.930Z,8.60
2022-09-29T06:11:40.396Z,8.60
2022-09-29T06:14:07.775Z,8.60
2022-09-29T06:16:35.497Z,8.60
2022-09-29T06:19:03.409Z,8.60
2022-09-29T06:21:31.472Z,8.60
2022-09-29T06:23:58.938Z,8.60
2022-09-29T06:26:27.000Z,8.60
2022-09-29T06:28:54.947Z,8.60
2022-09-29T06:31:23.757Z,8.70
2022-09-29T06:33:51.476Z,8.70
2022-09-29T06:36:38.650Z,8.80
2022-09-29T06:39:06.905Z,8.80
2022-09-29T06:41:35.314Z,8.90
2022-09-29T06:44:02.963Z,8.90
2022-09-29T06:46:30.715Z,9.00
2022-09-29T06:48:58.088Z,9.00
2022-09-29T06:51:36.863Z,9.00
2022-09-29T06:54:11.960Z,9.00
2022-09-29T06:56:40.068Z,8.90
2022-09-29T06:59:07.979Z,8.90
2022-09-29T07:01:35.358Z,8.90
2022-09-29T07:04:06.889Z,8.80
2022-09-29T07:06:34.922Z,8.80
2022-09-29T07:09:02.418Z,8.80
2022-09-29T07:11:30.178Z,8.80
2022-09-29T07:13:57.609Z,8.70
2022-09-29T07:16:25.398Z,8.70
2022-09-29T07:18:52.944Z,8.70
2022-09-29T07:21:22.200Z,8.80
2022-09-29T07:23:49.974Z,8.70
2022-09-29T07:26:18.328Z,8.80
2022-09-29T07:28:46.402Z,8.80
2022-09-29T07:31:16.082Z,8.90
2022-09-29T07:33:44.116Z,8.90
2022-09-29T07:36:12.183Z,9.00
2022-09-29T07:38:39.476Z,9.00
2022-09-29T07:41:08.366Z,9.00
2022-09-29T07:43:35.688Z,9.00
2022-09-29T07:46:03.683Z,9.00
2022-09-29T07:48:32.422Z,9.00
2022-09-29T07:51:01.709Z,9.10
2022-09-29T07:53:29.884Z,9.10
2022-09-29T07:56:02.086Z,9.20
2022-09-29T07:58:30.288Z,9.30
2022-09-29T08:00:57.620Z,9.40
2022-09-29T08:03:25.914Z,9.50
2022-09-29T08:05:53.652Z,9.60
2022-09-29T08:08:21.019Z,9.70
2022-09-29T08:10:53.197Z,9.80
2022-09-29T08:13:21.399Z,9.90
2022-09-29T08:15:48.738Z,10.00
2022-09-29T08:18:16.091Z,10.10
2022-09-29T08:20:43.402Z,10.20
2022-09-29T08:23:10.842Z,10.20
2022-09-29T08:25:38.173Z,10.30
2022-09-29T08:28:05.612Z,10.40
2022-09-29T08:30:33.049Z,10.50
2022-09-29T08:33:00.412Z,10.50
2022-09-29T08:35:28.197Z,10.60
2022-09-29T08:37:58.931Z,10.70
2022-09-29T08:40:30.376Z,10.80
2022-09-29T08:43:18.662Z,10.90
2022-09-29T08:46:00.604Z,11.00
2022-09-29T08:48:31.777Z,11.10
2022-09-29T08:51:06.627Z,11.20
2022-09-29T08:53:47.666Z,11.30
2022-09-29T08:56:17.834Z,11.40
2022-09-29T08:58:45.210Z,11.40
2022-09-29T09:01:31.985Z,11.50
2022-09-29T09:04:08.588Z,11.50
2022-09-29T09:06:41.756Z,11.60
2022-09-29T09:09:27.686Z,11.60
2022-09-29T09:12:13.910Z,11.70
2022-09-29T09:14:47.029Z,11.80
2022-09-29T09:17:17.241Z,11.90
2022-09-29T09:19:58.947Z,11.90
2022-09-29T09:22:36.437Z,12.10
2022-09-29T09:25:20.798Z,12.20
2022-09-29T09:27:57.026Z,12.40
2022-09-29T09:30:26.628Z,12.60
2022-09-29T09:33:00.930Z,12.80
2022-09-29T09:35:32.307Z,12.90
2022-09-29T09:38:02.682Z,13.00
2022-09-29T09:40:35.152Z,13.10
2022-09-29T09:43:10.890Z,13.20
2022-09-29T09:45:58.595Z,13.20
2022-09-29T09:48:31.824Z,13.30
2022-09-29T09:51:21.738Z,13.30
2022-09-29T09:53:50.728Z,13.50
2022-09-29T09:56:18.108Z,13.70
2022-09-29T09:58:51.613Z,13.90
2022-09-29T10:01:19.432Z,14.10
2022-09-29T10:03:46.959Z,14.30
2022-09-29T10:06:14.363Z,14.30
2022-09-29T10:08:42.295Z,14.40
2022-09-29T10:11:18.807Z,14.50
2022-09-29T10:13:46.974Z,14.50
2022-09-29T10:16:23.954Z,14.50
2022-09-29T10:18:54.614Z,14.50
2022-09-29T10:21:42.261Z,14.50
2022-09-29T10:24:21.363Z,14.40
2022-09-29T10:26:50.553Z,14.40
2022-09-29T10:29:22.409Z,14.50
2022-09-29T10:32:04.579Z,14.50
2022-09-29T10:34:33.099Z,14.60
2022-09-29T10:37:18.754Z,14.70
2022-09-29T10:39:48.320Z,14.80
2022-09-29T10:42:15.650Z,14.90
2022-09-29T10:44:44.248Z,15.00
2022-09-29T10:47:15.406Z,15.00
2022-09-29T10:49:42.991Z,15.10
2022-09-29T10:52:25.645Z,15.20
2022-09-29T10:54:55.381Z,15.30
2022-09-29T10:57:24.789Z,15.40
2022-09-29T10:59:53.685Z,15.60
2022-09-29T11:02:30.887Z,15.70
2022-09-29T11:05:00.081Z,15.80
2022-09-29T11:07:28.025Z,16.00
2022-09-29T11:09:55.688Z,16.20
2022-09-29T11:12:38.928Z,16.40
2022-09-29T11:15:22.649Z,16.70
2022-09-29T11:17:50.838Z,17.10
2022-09-29T11:20:18.799Z,17.40
2022-09-29T11:23:04.652Z,17.60
2022-09-29T11:25:50.827Z,17.50
2022-09-29T11:28:27.279Z,17.30
2022-09-29T11:30:58.040Z,17.10
2022-09-29T11:33:26.562Z,16.90
2022-09-29T11:35:59.742Z,16.80
2022-09-29T11:38:36.376Z,16.70
2022-09-29T11:41:25.428Z,16.60
2022-09-29T11:43:52.899Z,16.50
2022-09-29T11:46:24.024Z,16.40
2022-09-29T11:48:57.539Z,16.30
2022-09-29T11:51:40.934Z,16.00
2022-09-29T11:54:11.355Z,15.90
2022-09-29T11:56:44.435Z,15.70
2022-09-29T11:59:25.494Z,15.50
2022-09-29T12:02:19.310Z,15.40
2022-09-29T12:05:05.505Z,15.20
2022-09-29T12:07:38.938Z,15.10
2022-09-29T12:10:07.276Z,15.00
2022-09-29T12:12:37.465Z,15.00
2022-09-29T12:15:11.165Z,14.90
2022-09-29T12:17:41.527Z,14.70
2022-09-29T12:20:18.085Z,14.70
2022-09-29T12:22:46.561Z,14.70
2022-09-29T12:25:16.111Z,14.70
2022-09-29T12:27:44.974Z,14.80
2022-09-29T12:30:18.048Z,14.80
2022-09-29T12:32:51.843Z,14.90
2022-09-29T12:35:23.866Z,14.90
2022-09-29T12:37:51.216Z,15.00
2022-09-29T12:40:36.928Z,15.60
2022-09-29T12:43:13.127Z,16.30
2022-09-29T12:45:46.416Z,16.70
2022-09-29T12:48:32.550Z,16.90
2022-09-29T12:51:00.109Z,17.30
2022-09-29T12:53:33.180Z,17.40
2022-09-29T12:56:22.019Z,17.70
2022-09-29T12:58:58.800Z,18.10
2022-09-29T13:01:28.527Z,18.20
2022-09-29T13:04:04.809Z,18.30
2022-09-29T13:06:51.105Z,18.20
2022-09-29T13:09:21.441Z,18.10
2022-09-29T13:11:48.889Z,17.60
2022-09-29T13:14:16.216Z,17.70
2022-09-29T13:16:43.526Z,17.50
2022-09-29T13:19:56.130Z,17.20
2022-09-29T13:22:53.062Z,16.80
2022-09-29T13:25:28.398Z,16.60
2022-09-29T13:27:57.225Z,16.40
2022-09-29T13:30:33.275Z,16.20
2022-09-29T13:33:19.744Z,16.10
2022-09-29T13:35:49.223Z,16.00
2022-09-29T13:38:18.349Z,15.90
2022-09-29T13:41:15.414Z,15.80
2022-09-29T13:43:43.083Z,15.80
2022-09-29T13:46:29.773Z,15.70
2022-09-29T13:49:12.194Z,15.60
2022-09-29T13:51:42.970Z,15.50
2022-09-29T13:54:19.803Z,15.30
2022-09-29T13:56:52.083Z,15.20
2022-09-29T13:59:22.054Z,15.10
2022-09-29T14:01:50.954Z,14.90
2022-09-29T14:04:37.524Z,14.90
2022-09-29T14:07:06.553Z,14.90
2022-09-29T14:09:40.322Z,14.80
2022-09-29T14:12:09.650Z,14.90
2022-09-29T14:14:39.422Z,15.00
2022-09-29T14:17:09.579Z,15.00
2022-09-29T14:19:42.811Z,15.20
2022-09-29T14:22:28.656Z,15.40
2022-09-29T14:25:08.400Z,15.50
2022-09-29T14:27:39.865Z,15.70
2022-09-29T14:30:07.166Z,15.80
2022-09-29T14:32:34.528Z,15.90
2022-09-29T14:35:02.378Z,16.00
2022-09-29T14:37:31.510Z,16.20
2022-09-29T14:40:18.213Z,16.10
2022-09-29T14:42:45.602Z,16.10
2022-09-29T14:45:32.542Z,16.10
2022-09-29T14:48:27.641Z,16.20
2022-09-29T14:51:20.161Z,16.40
2022-09-29T14:53:51.135Z,16.40
2022-09-29T14:56:48.567Z,16.60
2022-09-29T14:59:27.207Z,16.70
2022-09-29T15:02:02.053Z,16.80
2022-09-29T15:04:29.524Z,16.80
2022-09-29T15:06:56.847Z,16.90
2022-09-29T15:09:25.247Z,16.80
2022-09-29T15:11:54.108Z,16.80
2022-09-29T15:14:21.501Z,16.70
2022-09-29T15:17:07.640Z,16.60
2022-09-29T15:19:37.780Z,16.50
2022-09-29T15:22:17.954Z,16.40
2022-09-29T15:24:57.667Z,16.40
2022-09-29T15:27:25.266Z,16.50
2022-09-29T15:29:56.795Z,16.50
2022-09-29T15:32:26.327Z,16.60
2022-09-29T15:34:59.676Z,16.70
2022-09-29T15:37:27.906Z,16.70
2022-09-29T15:39:55.289Z,16.60
2022-09-29T15:42:27.823Z,16.50
2022-09-29T15:44:56.386Z,16.30
2022-09-29T15:47:50.160Z,16.10
2022-09-29T15:50:19.604Z,15.90
2022-09-29T15:52:47.542Z,15.70
2022-09-29T15:55:17.479Z,15.50
2022-09-29T15:57:58.031Z,15.40
2022-09-29T16:00:26.885Z,15.30
2022-09-29T16:03:04.509Z,15.10
2022-09-29T16:05:33.009Z,14.90
2022-09-29T16:08:03.575Z,14.70
2022-09-29T16:10:35.695Z,14.50
2022-09-29T16:13:06.240Z,14.40
2022-09-29T16:15:34.909Z,14.40
2022-09-29T16:18:07.272Z,14.30
2022-09-29T16:20:35.149Z,14.20
2022-09-29T16:23:09.605Z,14.10
2022-09-29T16:25:37.108Z,14.10
2022-09-29T16:28:07.458Z,14.10
2022-09-29T16:30:36.527Z,14.10
2022-09-29T16:33:04.000Z,14.20
2022-09-29T16:35:41.477Z,14.30
2022-09-29T16:38:33.335Z,14.40
2022-09-29T16:41:08.225Z,14.40
2022-09-29T16:43:36.098Z,14.50
2022-09-29T16:46:06.738Z,14.50
2022-09-29T16:48:38.212Z,14.50
2022-09-29T16:51:12.291Z,14.50
2022-09-29T16:53:50.207Z,14.50
2022-09-29T16:56:28.086Z,14.50
2022-09-29T16:59:11.510Z,14.40
2022-09-29T17:01:42.998Z,14.30
2022-09-29T17:04:10.884Z,14.30
2022-09-29T17:06:38.947Z,14.30
2022-09-29T17:09:06.535Z,14.20
2022-09-29T17:11:34.071Z,14.20
2022-09-29T17:14:01.418Z,14.20
2022-09-29T17:16:29.101Z,14.10
2022-09-29T17:18:57.479Z,14.10
2022-09-29T17:21:25.020Z,14.00
2022-09-29T17:23:54.227Z,14.00
2022-09-29T17:26:45.708Z,13.90
2022-09-29T17:29:13.301Z,13.90
2022-09-29T17:31:40.681Z,13.90
2022-09-29T17:34:08.625Z,13.70
2022-09-29T17:36:36.912Z,13.70
2022-09-29T17:39:04.339Z,13.60
2022-09-29T17:41:32.146Z,13.50
2022-09-29T17:44:00.424Z,13.30
2022-09-29T17:46:28.268Z,13.20
2022-09-29T17:48:55.912Z,13.10
2022-09-29T17:51:23.504Z,13.00
2022-09-29T17:53:50.957Z,12.90
2022-09-29T17:56:28.623Z,12.80
2022-09-29T17:58:57.090Z,12.70
2022-09-29T18:01:26.591Z,12.60
2022-09-29T18:03:54.295Z,12.60
2022-09-29T18:06:22.635Z,12.50
2022-09-29T18:08:54.020Z,12.40
2022-09-29T18:11:23.310Z,12.30
2022-09-29T18:13:50.669Z,12.30
2022-09-29T18:16:20.139Z,12.30
2022-09-29T18:18:48.457Z,12.20
2022-09-29T18:21:20.177Z,12.20
2022-09-29T18:23:49.573Z,12.20
2022-09-29T18:26:18.176Z,12.10
2022-09-29T18:28:48.350Z,12.10
2022-09-29T18:31:23.332Z,12.10
2022-09-29T18:33:50.888Z,12.10
2022-09-29T18:36:18.236Z,12.00
2022-09-29T18:38:45.968Z,12.00
2022-09-29T18:41:16.058Z,12.00
2022-09-29T18:43:43.898Z,12.00
2022-09-29T18:46:11.254Z,11.90
2022-09-29T18:48:38.817Z,11.80
2022-09-29T18:51:06.156Z,11.80
2022-09-29T18:53:33.721Z,11.70
2022-09-29T18:56:02.424Z,11.60
2022-09-29T18:58:29.820Z,11.50
2022-09-29T19:00:57.562Z,11.50
2022-09-29T19:03:29.135Z,11.40
2022-09-29T19:05:56.746Z,12.40
2022-09-29T19:08:24.356Z,11.30
2022-09-29T19:10:53.137Z,11.20
2022-09-29T19:13:20.855Z,11.10
2022-09-29T19:15:49.095Z,11.10
2022-09-29T19:18:23.574Z,11.00
2022-09-29T19:20:52.050Z,10.90
2022-09-29T19:23:21.847Z,11.40
2022-09-29T19:25:49.996Z,10.80
2022-09-29T19:28:18.172Z,10.80
2022-09-29T19:30:46.237Z,10.70
2022-09-29T19:33:15.995Z,10.60
2022-09-29T19:35:44.838Z,10.60
2022-09-29T19:38:12.172Z,10.60
2022-09-29T19:40:39.657Z,10.50
2022-09-29T19:43:08.290Z,10.50
2022-09-29T19:45:37.587Z,10.40
2022-09-29T19:48:08.620Z,10.40
2022-09-29T19:50:54.580Z,10.40
2022-09-29T19:53:22.115Z,10.30
2022-09-29T19:55:49.512Z,10.30
2022-09-29T19:58:16.837Z,10.20
2022-09-29T20:00:44.195Z,10.20
2022-09-29T20:03:11.685Z,10.20
2022-09-29T20:05:39.250Z,10.10
2022-09-29T20:08:06.903Z,10.10
2022-09-29T20:10:34.201Z,10.00
2022-09-29T20:13:03.405Z,10.00
2022-09-29T20:15:31.240Z,9.90
2022-09-29T20:17:58.629Z,9.90
2022-09-29T20:20:26.359Z,9.90
2022-09-29T20:22:54.207Z,9.80
2022-09-29T20:25:21.746Z,9.80
2022-09-29T20:27:51.846Z,9.80
2022-09-29T20:30:20.891Z,9.80
2022-09-29T20:32:49.568Z,9.70
2022-09-29T20:35:17.006Z,9.70
2022-09-29T20:37:46.245Z,9.70
2022-09-29T20:40:14.194Z,9.70
2022-09-29T20:42:42.064Z,9.60
2022-09-29T20:45:09.671Z,9.60
2022-09-29T20:47:37.204Z,9.60
2022-09-29T20:50:05.461Z,9.50
2022-09-29T20:52:32.830Z,9.50
2022-09-29T20:55:03.461Z,9.40
2022-09-29T20:57:31.819Z,9.40
2022-09-29T20:59:59.351Z,9.30
2022-09-29T21:02:27.367Z,9.30
2022-09-29T21:04:54.911Z,9.30
2022-09-29T21:07:38.200Z,9.20
2022-09-29T21:10:06.229Z,9.20
2022-09-29T21:12:34.139Z,9.20
2022-09-29T21:15:02.232Z,9.10
2022-09-29T21:17:29.735Z,9.10
2022-09-29T21:19:57.156Z,9.00
2022-09-29T21:22:27.777Z,9.00
2022-09-29T21:24:55.474Z,8.90
2022-09-29T21:27:22.858Z,8.80
2022-09-29T21:29:50.427Z,8.80
2022-09-29T21:32:17.962Z,8.80
2022-09-29T21:34:45.278Z,8.70
2022-09-29T21:37:12.704Z,8.70
2022-09-29T21:39:40.211Z,8.70
2022-09-29T21:42:07.653Z,8.60
2022-09-29T21:44:35.219Z,8.60
2022-09-29T21:47:03.016Z,8.60
2022-09-29T21:49:30.540Z,8.60
2022-09-29T21:52:01.274Z,8.60
2022-09-29T21:54:30.401Z,8.60
2022-09-29T21:56:57.869Z,8.50
2022-09-29T21:59:25.288Z,8.50
2022-09-29T22:01:53.057Z,8.50
2022-09-29T22:04:20.895Z,8.50
2022-09-29T22:06:48.350Z,8.50
2022-09-29T22:09:18.103Z,8.40
2022-09-29T22:11:45.742Z,8.40
2022-09-29T22:14:13.752Z,8.30
2022-09-29T22:16:44.107Z,8.30
2022-09-29T22:19:29.958Z,8.30
2022-09-29T22:21:57.734Z,8.20
2022-09-29T22:24:27.383Z,8.20
2022-09-29T22:26:55.286Z,8.20
2022-09-29T22:29:25.337Z,7.90
2022-09-29T22:31:53.102Z,8.10
2022-09-29T22:34:20.620Z,8.10
2022-09-29T22:36:48.022Z,8.10
2022-09-29T22:39:15.498Z,8.10
2022-09-29T22:41:43.584Z,8.10
2022-09-29T22:44:11.342Z,8.00
2022-09-29T22:46:38.845Z,8.00
2022-09-29T22:49:06.402Z,7.90
2022-09-29T22:51:34.071Z,7.90
2022-09-29T22:54:01.621Z,7.90
2022-09-29T22:56:29.438Z,7.80
2022-09-29T22:59:01.465Z,7.80
2022-09-29T23:01:29.101Z,7.70
2022-09-29T23:03:57.147Z,7.70
2022-09-29T23:06:24.973Z,7.60
2022-09-29T23:08:53.589Z,7.60
2022-09-29T23:11:21.041Z,7.60
2022-09-29T23:13:49.014Z,7.50
2022-09-29T23:16:16.891Z,7.50
2022-09-29T23:18:45.560Z,7.40
2022-09-29T23:21:13.935Z,7.40
2022-09-29T23:23:41.256Z,7.40
2022-09-29T23:26:08.667Z,7.30
2022-09-29T23:28:36.475Z,7.40
2022-09-29T23:31:04.888Z,7.30
2022-09-29T23:33:32.408Z,7.30
2022-09-29T23:36:13.066Z,7.20
2022-09-29T23:38:59.800Z,7.20
2022-09-29T23:41:27.939Z,7.20
2022-09-29T23:43:56.138Z,7.10
2022-09-29T23:46:24.095Z,7.10
2022-09-29T23:48:51.654Z,7.10
2022-09-29T23:51:19.024Z,7.00
2022-09-29T23:53:46.699Z,7.00
2022-09-29T23:56:14.153Z,7.00
2022-09-29T23:58:41.649Z,7.00
